createdAt,value
2023-04-27T00:00:17.469Z,99.90
2023-04-27T00:02:44.657Z,99.90
2023-04-27T00:05:11.984Z,99.90
2023-04-27T00:07:39.494Z,99.90
2023-04-27T00:10:07.582Z,99.90
2023-04-27T00:12:34.646Z,99.90
2023-04-27T00:15:01.904Z,99.90
2023-04-27T00:17:28.995Z,99.90
2023-04-27T00:19:56.137Z,99.90
2023-04-27T00:22:23.219Z,99.90
2023-04-27T00:24:50.255Z,99.90
2023-04-27T00:27:17.367Z,99.90
2023-04-27T00:29:44.416Z,99.90
2023-04-27T00:32:11.744Z,99.90
2023-04-27T00:34:38.921Z,99.90
2023-04-27T00:37:06.110Z,99.90
2023-04-27T00:39:36.088Z,99.90
2023-04-27T00:42:03.099Z,99.90
2023-04-27T00:44:30.392Z,99.90
2023-04-27T00:46:59.208Z,99.90
2023-04-27T00:49:27.884Z,99.90
2023-04-27T00:51:56.371Z,99.90
2023-04-27T00:54:24.389Z,99.90
2023-04-27T00:56:52.530Z,99.90
2023-04-27T00:59:20.376Z,99.90
2023-04-27T01:01:47.966Z,99.90
2023-04-27T01:04:15.590Z,99.90
2023-04-27T01:06:42.729Z,99.90
2023-04-27T01:09:11.162Z,99.90
2023-04-27T01:11:38.329Z,99.90
2023-04-27T01:14:07.478Z,99.90
2023-04-27T01:16:35.576Z,99.90
2023-04-27T01:19:02.784Z,99.90
2023-04-27T01:21:29.813Z,99.90
2023-04-27T01:23:56.997Z,99.90
2023-04-27T01:26:24.026Z,99.90
2023-04-27T01:28:51.051Z,99.90
2023-04-27T01:31:18.136Z,99.90
2023-04-27T01:33:45.164Z,99.90
2023-04-27T01:36:12.145Z,99.90
2023-04-27T01:38:39.321Z,99.90
2023-04-27T01:41:09.082Z,99.90
2023-04-27T01:43:39.805Z,99.90
2023-04-27T01:46:12.907Z,99.90
2023-04-27T01:48:42.250Z,99.90
2023-04-27T01:51:09.348Z,99.90
2023-04-27T01:53:36.330Z,99.90
2023-04-27T01:56:03.688Z,99.90
2023-04-27T01:58:31.051Z,99.90
2023-04-27T02:00:58.066Z,99.90
2023-04-27T02:03:25.265Z,99.90
2023-04-27T02:05:52.584Z,99.90
2023-04-27T02:08:19.674Z,99.90
2023-04-27T02:10:46.672Z,99.90
2023-04-27T02:13:13.680Z,99.90
2023-04-27T02:15:40.791Z,99.90
2023-04-27T02:18:07.913Z,99.90
2023-04-27T02:20:35.084Z,99.90
2023-04-27T02:23:02.349Z,99.90
2023-04-27T02:25:29.496Z,99.90
2023-04-27T02:27:57.040Z,99.90
2023-04-27T02:30:24.591Z,99.90
2023-04-27T02:32:52.172Z,99.90
2023-04-27T02:35:19.338Z,99.90
2023-04-27T02:37:46.581Z,99.90
2023-04-27T02:40:15.730Z,99.90
2023-04-27T02:42:42.758Z,99.90
2023-04-27T02:45:10.190Z,99.90
2023-04-27T02:47:37.369Z,99.90
2023-04-27T02:50:05.036Z,99.90
2023-04-27T02:52:32.108Z,99.90
2023-04-27T02:54:59.109Z,99.90
2023-04-27T02:57:26.253Z,99.90
2023-04-27T02:59:53.249Z,99.90
2023-04-27T03:02:21.547Z,99.90
2023-04-27T03:04:54.320Z,99.90
2023-04-27T03:07:22.949Z,99.90
2023-04-27T03:09:49.951Z,99.90
2023-04-27T03:12:16.973Z,99.90
2023-04-27T03:14:43.965Z,99.90
2023-04-27T03:17:11.620Z,99.90
2023-04-27T03:19:38.684Z,99.90
2023-04-27T03:22:05.743Z,99.90
2023-04-27T03:24:33.352Z,99.90
2023-04-27T03:27:00.376Z,99.90
2023-04-27T03:29:27.398Z,99.90
2023-04-27T03:31:54.392Z,99.90
2023-04-27T03:34:21.913Z,99.90
2023-04-27T03:36:49.256Z,99.90
2023-04-27T03:39:16.459Z,99.90
2023-04-27T03:41:43.540Z,99.90
2023-04-27T03:44:10.518Z,99.90
2023-04-27T03:46:37.623Z,99.90
2023-04-27T03:49:04.637Z,99.90
2023-04-27T03:51:33.378Z,99.90
2023-04-27T03:54:00.834Z,99.90
2023-04-27T03:56:27.819Z,99.90
2023-04-27T03:58:54.851Z,99.90
2023-04-27T04:01:22.033Z,99.90
2023-04-27T04:03:49.140Z,99.90
2023-04-27T04:06:16.407Z,99.90
2023-04-27T04:08:43.404Z,99.90
2023-04-27T04:11:10.527Z,99.90
2023-04-27T04:13:37.589Z,99.90
2023-04-27T04:16:07.883Z,99.90
2023-04-27T04:18:36.953Z,99.90
2023-04-27T04:21:04.188Z,99.90
2023-04-27T04:23:32.896Z,99.90
2023-04-27T04:26:00.137Z,99.90
2023-04-27T04:28:27.555Z,99.90
2023-04-27T04:30:54.634Z,99.90
2023-04-27T04:33:22.046Z,99.90
2023-04-27T04:35:49.027Z,99.90
2023-04-27T04:38:16.006Z,99.90
2023-04-27T04:40:45.352Z,99.90
2023-04-27T04:43:13.404Z,99.90
2023-04-27T04:45:40.656Z,99.90
2023-04-27T04:48:08.615Z,99.90
2023-04-27T04:50:36.025Z,99.90
2023-04-27T04:53:03.049Z,99.90
2023-04-27T04:55:30.083Z,99.90
2023-04-27T04:57:57.113Z,99.90
2023-04-27T05:00:24.178Z,99.90
2023-04-27T05:02:51.301Z,99.90
2023-04-27T05:05:18.737Z,99.90
2023-04-27T05:07:45.832Z,99.90
2023-04-27T05:10:12.930Z,99.90
2023-04-27T05:12:39.977Z,99.90
2023-04-27T05:15:07.933Z,99.90
2023-04-27T05:17:35.038Z,99.90
2023-04-27T05:20:02.275Z,99.90
2023-04-27T05:22:29.369Z,99.90
2023-04-27T05:24:57.265Z,99.90
2023-04-27T05:27:24.310Z,99.90
2023-04-27T05:29:51.724Z,99.90
2023-04-27T05:32:18.759Z,99.90
2023-04-27T05:34:47.977Z,99.90
2023-04-27T05:37:16.565Z,99.90
2023-04-27T05:39:43.603Z,99.90
2023-04-27T05:42:10.716Z,99.90
2023-04-27T05:44:37.798Z,99.90
2023-04-27T05:47:04.852Z,99.90
2023-04-27T05:49:31.909Z,99.90
2023-04-27T05:51:59.160Z,99.90
2023-04-27T05:54:27.612Z,99.90
2023-04-27T05:56:54.669Z,99.90
2023-04-27T05:59:21.931Z,99.90
2023-04-27T06:01:49.230Z,99.90
2023-04-27T06:04:16.647Z,99.90
2023-04-27T06:06:44.896Z,99.90
2023-04-27T06:09:12.101Z,99.90
2023-04-27T06:11:40.486Z,99.90
2023-04-27T06:14:07.542Z,99.90
2023-04-27T06:16:34.517Z,99.90
2023-04-27T06:19:01.627Z,99.90
2023-04-27T06:21:28.694Z,99.90
2023-04-27T06:23:56.011Z,99.90
2023-04-27T06:26:23.128Z,99.90
2023-04-27T06:28:50.059Z,99.90
2023-04-27T06:31:17.433Z,99.90
2023-04-27T06:33:44.537Z,99.90
2023-04-27T06:36:11.742Z,99.90
2023-04-27T06:38:38.791Z,99.90
2023-04-27T06:41:06.122Z,99.90
2023-04-27T06:43:33.294Z,99.90
2023-04-27T06:46:01.312Z,99.90
2023-04-27T06:48:31.209Z,99.90
2023-04-27T06:50:58.212Z,99.90
2023-04-27T06:53:25.165Z,99.90
2023-04-27T06:55:52.153Z,99.90
2023-04-27T06:58:19.202Z,99.90
2023-04-27T07:00:46.213Z,99.90
2023-04-27T07:03:13.391Z,99.90
2023-04-27T07:05:40.989Z,99.90
2023-04-27T07:08:08.982Z,99.90
2023-04-27T07:10:36.422Z,99.90
2023-04-27T07:13:03.418Z,99.90
2023-04-27T07:15:31.887Z,99.90
2023-04-27T07:17:59.307Z,99.90
2023-04-27T07:20:26.877Z,99.90
2023-04-27T07:22:53.956Z,99.90
2023-04-27T07:25:21.797Z,99.90
2023-04-27T07:27:49.240Z,99.90
2023-04-27T07:30:17.286Z,99.90
2023-04-27T07:32:44.520Z,99.90
2023-04-27T07:35:11.609Z,99.90
2023-04-27T07:37:38.721Z,99.90
2023-04-27T07:40:14.432Z,99.90
2023-04-27T07:42:42.147Z,99.90
2023-04-27T07:45:10.219Z,99.90
2023-04-27T07:47:37.872Z,99.90
2023-04-27T07:50:08.932Z,99.90
2023-04-27T07:52:36.269Z,99.90
2023-04-27T07:55:04.603Z,99.90
2023-04-27T07:57:31.921Z,99.90
2023-04-27T07:59:59.018Z,99.90
2023-04-27T08:02:31.664Z,99.90
2023-04-27T08:04:59.273Z,99.90
2023-04-27T08:07:27.273Z,99.90
2023-04-27T08:09:55.102Z,99.90
2023-04-27T08:12:22.098Z,99.90
2023-04-27T08:14:49.209Z,99.90
2023-04-27T08:17:18.424Z,99.90
2023-04-27T08:19:45.680Z,99.90
2023-04-27T08:22:12.895Z,99.90
2023-04-27T08:24:39.894Z,99.90
2023-04-27T08:27:07.376Z,99.90
2023-04-27T08:29:34.820Z,99.90
2023-04-27T08:32:04.505Z,99.90
2023-04-27T08:34:32.162Z,99.90
2023-04-27T08:37:00.379Z,99.90
2023-04-27T08:39:28.025Z,99.90
2023-04-27T08:41:55.076Z,99.90
2023-04-27T08:44:22.343Z,99.90
2023-04-27T08:46:50.921Z,99.90
2023-04-27T08:49:18.396Z,99.90
2023-04-27T08:51:45.806Z,99.90
2023-04-27T08:54:12.873Z,99.90
2023-04-27T08:56:39.936Z,99.90
2023-04-27T08:59:17.868Z,99.90
2023-04-27T09:01:48.757Z,99.90
2023-04-27T09:04:17.910Z,99.90
2023-04-27T09:06:45.246Z,99.90
2023-04-27T09:09:23.738Z,99.90
2023-04-27T09:11:51.373Z,99.90
2023-04-27T09:14:23.964Z,99.90
2023-04-27T09:16:59.374Z,99.90
2023-04-27T09:19:29.135Z,99.90
2023-04-27T09:22:11.700Z,99.90
2023-04-27T09:24:38.960Z,99.90
2023-04-27T09:27:08.915Z,99.60
2023-04-27T09:29:38.457Z,99.90
2023-04-27T09:32:17.203Z,99.90
2023-04-27T09:34:45.242Z,99.90
2023-04-27T09:37:12.882Z,99.80
2023-04-27T09:39:41.632Z,99.90
2023-04-27T09:42:09.280Z,99.90
2023-04-27T09:44:37.058Z,99.90
2023-04-27T09:47:04.901Z,99.90
2023-04-27T09:49:36.029Z,99.90
2023-04-27T09:52:03.046Z,99.90
2023-04-27T09:54:34.724Z,99.90
2023-04-27T09:57:16.014Z,99.40
2023-04-27T10:00:01.918Z,99.60
2023-04-27T10:02:50.013Z,99.30
2023-04-27T10:06:09.012Z,98.00
2023-04-27T10:08:36.458Z,99.90
2023-04-27T10:11:19.318Z,99.90
2023-04-27T10:13:54.789Z,99.90
2023-04-27T10:16:22.913Z,99.90
2023-04-27T10:18:55.795Z,99.90
2023-04-27T10:21:23.855Z,99.90
2023-04-27T10:23:52.667Z,99.90
2023-04-27T10:26:27.715Z,99.90
2023-04-27T10:29:16.293Z,99.90
2023-04-27T10:31:48.876Z,99.90
2023-04-27T10:34:21.671Z,99.90
2023-04-27T10:36:48.744Z,99.90
2023-04-27T10:39:29.830Z,99.90
2023-04-27T10:41:59.965Z,99.90
2023-04-27T10:44:30.498Z,99.90
2023-04-27T10:47:00.035Z,99.90
2023-04-27T10:49:31.453Z,99.90
2023-04-27T10:52:00.827Z,99.90
2023-04-27T10:54:29.345Z,99.90
2023-04-27T10:57:10.981Z,99.90
2023-04-27T10:59:55.532Z,99.90
2023-04-27T11:02:29.339Z,99.90
2023-04-27T11:04:56.803Z,99.90
2023-04-27T11:07:27.663Z,99.90
2023-04-27T11:09:55.587Z,99.90
2023-04-27T11:12:24.127Z,98.70
2023-04-27T11:14:56.850Z,97.70
2023-04-27T11:17:32.359Z,97.40
2023-04-27T11:19:59.465Z,97.10
2023-04-27T11:22:26.883Z,96.30
2023-04-27T11:24:56.901Z,96.00
2023-04-27T11:27:25.320Z,96.40
2023-04-27T11:29:52.295Z,96.40
2023-04-27T11:32:23.964Z,96.40
2023-04-27T11:34:54.314Z,96.20
2023-04-27T11:37:25.468Z,95.40
2023-04-27T11:39:57.560Z,95.10
2023-04-27T11:42:28.580Z,95.00
2023-04-27T11:45:09.115Z,95.40
2023-04-27T11:47:36.199Z,95.60
2023-04-27T11:50:08.461Z,99.90
2023-04-27T11:52:40.153Z,99.90
2023-04-27T11:55:10.756Z,99.90
2023-04-27T11:57:38.990Z,99.90
2023-04-27T12:00:11.122Z,99.90
2023-04-27T12:02:39.200Z,99.90
2023-04-27T12:05:07.878Z,99.90
2023-04-27T12:07:35.352Z,99.90
2023-04-27T12:10:02.392Z,99.90
2023-04-27T12:12:29.527Z,99.90
2023-04-27T12:14:56.811Z,99.90
2023-04-27T12:17:23.877Z,99.90
2023-04-27T12:19:50.881Z,99.90
2023-04-27T12:22:17.953Z,99.90
2023-04-27T12:24:44.941Z,99.90
2023-04-27T12:27:12.837Z,99.90
2023-04-27T12:29:39.847Z,99.90
2023-04-27T12:32:06.978Z,99.90
2023-04-27T12:34:35.196Z,99.90
2023-04-27T12:37:02.169Z,99.90
2023-04-27T12:39:29.553Z,99.90
2023-04-27T12:41:58.170Z,98.20
2023-04-27T12:44:25.544Z,97.70
2023-04-27T12:46:52.596Z,97.70
2023-04-27T12:49:19.614Z,97.00
2023-04-27T12:51:48.007Z,97.80
2023-04-27T12:54:15.298Z,98.60
2023-04-27T12:56:42.579Z,98.30
2023-04-27T12:59:09.714Z,97.90
2023-04-27T13:01:37.306Z,98.70
2023-04-27T13:04:07.007Z,98.00
2023-04-27T13:06:34.348Z,98.00
2023-04-27T13:09:02.470Z,97.20
2023-04-27T13:11:29.588Z,97.30
2023-04-27T13:13:56.675Z,96.00
2023-04-27T13:16:25.495Z,96.40
2023-04-27T13:18:55.479Z,98.00
2023-04-27T13:21:23.212Z,97.40
2023-04-27T13:23:51.260Z,96.80
2023-04-27T13:26:19.109Z,96.40
2023-04-27T13:28:46.207Z,98.20
2023-04-27T13:31:13.340Z,99.40
2023-04-27T13:33:43.881Z,98.90
2023-04-27T13:36:12.795Z,98.60
2023-04-27T13:38:41.573Z,98.70
2023-04-27T13:41:09.042Z,97.70
2023-04-27T13:43:36.247Z,98.20
2023-04-27T13:46:03.768Z,99.70
2023-04-27T13:48:32.013Z,99.70
2023-04-27T13:50:59.324Z,99.10
2023-04-27T13:53:27.303Z,98.50
2023-04-27T13:55:56.467Z,97.80
2023-04-27T13:58:26.119Z,97.50
2023-04-27T14:00:54.076Z,98.50
2023-04-27T14:03:22.814Z,97.10
2023-04-27T14:05:51.605Z,96.70
2023-04-27T14:08:19.391Z,97.00
2023-04-27T14:10:46.747Z,96.90
2023-04-27T14:13:14.570Z,98.20
2023-04-27T14:15:42.198Z,97.20
2023-04-27T14:18:09.970Z,95.50
2023-04-27T14:20:38.359Z,96.00
2023-04-27T14:23:07.055Z,96.90
2023-04-27T14:25:34.937Z,96.70
2023-04-27T14:28:04.829Z,98.50
2023-04-27T14:30:32.836Z,98.00
2023-04-27T14:33:00.048Z,99.30
2023-04-27T14:35:28.228Z,97.60
2023-04-27T14:37:57.196Z,98.40
2023-04-27T14:40:24.404Z,96.10
2023-04-27T14:42:51.417Z,95.10
2023-04-27T14:45:18.981Z,95.20
2023-04-27T14:47:46.052Z,95.50
2023-04-27T14:50:13.464Z,96.70
2023-04-27T14:52:40.530Z,96.40
2023-04-27T14:55:08.416Z,96.60
2023-04-27T14:57:36.868Z,95.90
2023-04-27T15:00:09.782Z,96.70
2023-04-27T15:02:41.250Z,94.90
2023-04-27T15:05:09.158Z,94.90
2023-04-27T15:07:36.417Z,95.60
2023-04-27T15:10:04.181Z,95.80
2023-04-27T15:12:31.190Z,96.30
2023-04-27T15:14:58.186Z,95.90
2023-04-27T15:17:26.142Z,95.10
2023-04-27T15:19:53.178Z,95.70
2023-04-27T15:22:20.910Z,95.40
2023-04-27T15:24:47.995Z,94.50
2023-04-27T15:27:14.967Z,94.00
2023-04-27T15:29:41.991Z,92.90
2023-04-27T15:32:09.269Z,93.30
2023-04-27T15:34:36.408Z,93.30
2023-04-27T15:37:04.011Z,94.70
2023-04-27T15:39:31.191Z,96.50
2023-04-27T15:41:59.796Z,95.40
2023-04-27T15:44:27.096Z,95.90
2023-04-27T15:46:54.397Z,94.50
2023-04-27T15:49:21.621Z,93.10
2023-04-27T15:51:49.322Z,89.50
2023-04-27T15:54:17.938Z,88.40
2023-04-27T15:56:44.962Z,88.90
2023-04-27T15:59:13.716Z,89.10
2023-04-27T16:01:41.152Z,89.50
2023-04-27T16:04:08.393Z,89.60
2023-04-27T16:06:36.794Z,89.70
2023-04-27T16:09:04.330Z,88.80
2023-04-27T16:11:31.654Z,89.30
2023-04-27T16:13:59.469Z,90.20
2023-04-27T16:16:27.193Z,90.10
2023-04-27T16:18:54.711Z,88.30
2023-04-27T16:21:21.926Z,88.60
2023-04-27T16:23:49.028Z,88.00
2023-04-27T16:26:16.549Z,88.90
2023-04-27T16:28:43.695Z,88.90
2023-04-27T16:31:12.563Z,90.20
2023-04-27T16:33:39.869Z,89.40
2023-04-27T16:36:07.181Z,90.00
2023-04-27T16:38:34.283Z,90.10
2023-04-27T16:41:01.309Z,90.00
2023-04-27T16:43:29.944Z,90.50
2023-04-27T16:45:57.075Z,90.10
2023-04-27T16:48:25.426Z,90.40
2023-04-27T16:50:54.741Z,91.40
2023-04-27T16:53:22.401Z,91.60
2023-04-27T16:55:49.468Z,90.60
2023-04-27T16:58:16.596Z,90.10
2023-04-27T17:00:46.312Z,89.20
2023-04-27T17:03:13.516Z,90.20
2023-04-27T17:05:40.627Z,89.50
2023-04-27T17:08:08.490Z,89.20
2023-04-27T17:10:36.782Z,89.40
2023-04-27T17:13:07.805Z,89.00
2023-04-27T17:15:34.802Z,90.10
2023-04-27T17:18:05.080Z,90.40
2023-04-27T17:20:32.677Z,90.10
2023-04-27T17:22:59.786Z,89.80
2023-04-27T17:25:26.977Z,90.20
2023-04-27T17:27:53.963Z,90.30
2023-04-27T17:30:20.940Z,90.10
2023-04-27T17:32:49.341Z,90.40
2023-04-27T17:35:16.357Z,90.60
2023-04-27T17:37:43.317Z,90.30
2023-04-27T17:40:11.298Z,90.40
2023-04-27T17:42:38.281Z,90.70
2023-04-27T17:45:06.302Z,91.00
2023-04-27T17:47:33.830Z,91.10
2023-04-27T17:50:02.007Z,91.50
2023-04-27T17:52:29.210Z,91.70
2023-04-27T17:54:56.526Z,91.50
2023-04-27T17:57:23.706Z,91.60
2023-04-27T17:59:50.965Z,91.80
2023-04-27T18:02:18.202Z,92.20
2023-04-27T18:04:45.645Z,92.60
2023-04-27T18:07:12.884Z,92.80
2023-04-27T18:09:40.034Z,92.80
2023-04-27T18:12:11.013Z,92.60
2023-04-27T18:14:38.870Z,93.00
2023-04-27T18:17:06.323Z,93.00
2023-04-27T18:19:33.511Z,93.40
2023-04-27T18:22:00.512Z,93.60
2023-04-27T18:24:27.588Z,94.00
2023-04-27T18:26:54.669Z,94.10
2023-04-27T18:29:21.732Z,94.20
2023-04-27T18:31:49.395Z,94.50
2023-04-27T18:34:16.605Z,94.50
2023-04-27T18:36:43.766Z,95.10
2023-04-27T18:39:11.005Z,95.30
2023-04-27T18:41:38.084Z,95.10
2023-04-27T18:44:06.190Z,95.00
2023-04-27T18:46:33.704Z,95.10
2023-04-27T18:49:01.955Z,95.20
2023-04-27T18:51:29.367Z,95.50
2023-04-27T18:53:56.662Z,95.50
2023-04-27T18:56:24.232Z,95.60
2023-04-27T18:58:51.351Z,95.50
2023-04-27T19:01:25.399Z,96.00
2023-04-27T19:03:53.791Z,96.20
2023-04-27T19:06:21.404Z,96.50
2023-04-27T19:08:48.920Z,96.90
2023-04-27T19:11:16.507Z,96.40
2023-04-27T19:13:45.327Z,96.70
2023-04-27T19:16:12.927Z,96.90
2023-04-27T19:18:40.840Z,96.80
2023-04-27T19:21:10.071Z,97.00
2023-04-27T19:23:37.858Z,97.00
2023-04-27T19:26:13.166Z,97.10
2023-04-27T19:28:41.326Z,97.50
2023-04-27T19:31:10.298Z,97.60
2023-04-27T19:33:37.516Z,97.60
2023-04-27T19:36:05.544Z,97.70
2023-04-27T19:38:32.836Z,98.00
2023-04-27T19:41:00.324Z,98.30
2023-04-27T19:43:29.071Z,98.50
2023-04-27T19:45:57.209Z,98.80
2023-04-27T19:48:24.484Z,98.90
2023-04-27T19:50:51.527Z,99.10
2023-04-27T19:53:19.074Z,99.40
2023-04-27T19:55:46.743Z,99.70
2023-04-27T19:58:14.041Z,99.80
2023-04-27T20:00:41.661Z,99.80
2023-04-27T20:03:08.958Z,99.90
2023-04-27T20:05:37.638Z,99.90
2023-04-27T20:08:04.956Z,99.90
2023-04-27T20:10:33.166Z,99.90
2023-04-27T20:13:00.589Z,99.90
2023-04-27T20:15:29.693Z,99.90
2023-04-27T20:17:56.768Z,99.90
2023-04-27T20:20:25.386Z,99.90
2023-04-27T20:22:52.492Z,99.90
2023-04-27T20:25:20.171Z,99.90
2023-04-27T20:27:47.288Z,99.90
2023-04-27T20:30:14.375Z,99.90
2023-04-27T20:32:41.410Z,99.90
2023-04-27T20:35:11.718Z,99.90
2023-04-27T20:37:40.082Z,99.90
2023-04-27T20:40:11.918Z,99.90
2023-04-27T20:42:42.582Z,99.90
2023-04-27T20:45:11.594Z,99.90
2023-04-27T20:47:38.842Z,99.90
2023-04-27T20:50:08.042Z,99.90
2023-04-27T20:52:36.452Z,99.90
2023-04-27T20:55:04.751Z,99.90
2023-04-27T20:57:32.426Z,99.90
2023-04-27T20:59:59.502Z,99.90
2023-04-27T21:02:26.612Z,99.90
2023-04-27T21:04:53.843Z,99.90
2023-04-27T21:07:21.023Z,99.90
2023-04-27T21:09:48.010Z,99.90
2023-04-27T21:12:17.242Z,99.90
2023-04-27T21:14:44.973Z,99.90
2023-04-27T21:17:15.133Z,99.90
2023-04-27T21:19:43.352Z,99.90
2023-04-27T21:22:10.401Z,99.90
2023-04-27T21:24:37.418Z,99.90
2023-04-27T21:27:04.778Z,99.90
2023-04-27T21:29:34.024Z,99.90
2023-04-27T21:32:01.088Z,99.90
2023-04-27T21:34:28.340Z,99.90
2023-04-27T21:36:55.610Z,99.90
2023-04-27T21:39:22.618Z,99.90
2023-04-27T21:41:49.594Z,99.90
2023-04-27T21:44:16.840Z,99.90
2023-04-27T21:46:44.194Z,99.90
2023-04-27T21:49:11.394Z,99.90
2023-04-27T21:51:38.511Z,99.90
2023-04-27T21:54:06.284Z,99.90
2023-04-27T21:56:33.342Z,99.90
2023-04-27T21:59:00.380Z,99.90
2023-04-27T22:01:27.502Z,99.90
2023-04-27T22:03:54.888Z,99.90
2023-04-27T22:06:22.157Z,99.90
2023-04-27T22:08:49.283Z,99.90
2023-04-27T22:11:16.704Z,99.90
2023-04-27T22:13:43.706Z,99.90
2023-04-27T22:16:13.138Z,99.90
2023-04-27T22:18:40.825Z,99.90
2023-04-27T22:21:08.282Z,99.90
2023-04-27T22:23:35.538Z,99.90
2023-04-27T22:26:02.679Z,99.90
2023-04-27T22:28:29.685Z,99.90
2023-04-27T22:30:57.124Z,99.90
2023-04-27T22:33:24.303Z,99.90
2023-04-27T22:35:51.539Z,99.90
2023-04-27T22:38:18.592Z,99.90
2023-04-27T22:40:45.589Z,99.90
2023-04-27T22:43:12.587Z,99.90
2023-04-27T22:45:39.693Z,99.90
2023-04-27T22:48:10.228Z,99.90
2023-04-27T22:50:37.306Z,99.90
2023-04-27T22:53:04.645Z,99.90
2023-04-27T22:55:31.643Z,99.90
2023-04-27T22:57:58.647Z,99.90
2023-04-27T23:00:26.296Z,99.90
2023-04-27T23:02:53.467Z,99.90
2023-04-27T23:05:20.705Z,99.90
2023-04-27T23:07:47.752Z,99.90
2023-04-27T23:10:15.273Z,99.90
2023-04-27T23:12:42.331Z,99.90
2023-04-27T23:15:10.279Z,99.90
2023-04-27T23:17:37.476Z,99.90
2023-04-27T23:20:11.196Z,99.90
2023-04-27T23:22:44.187Z,99.90
2023-04-27T23:25:11.551Z,99.90
2023-04-27T23:27:38.554Z,99.90
2023-04-27T23:30:07.031Z,99.90
2023-04-27T23:32:35.837Z,99.90
2023-04-27T23:35:02.898Z,99.90
2023-04-27T23:37:29.905Z,99.90
2023-04-27T23:39:56.891Z,99.90
2023-04-27T23:42:23.882Z,99.90
2023-04-27T23:44:51.030Z,99.90
2023-04-27T23:47:18.020Z,99.90
2023-04-27T23:49:45.136Z,99.90
2023-04-27T23:52:12.515Z,99.90
2023-04-27T23:54:39.521Z,99.90
2023-04-27T23:57:06.728Z,99.90
2023-04-27T23:59:35.464Z,99.90
